createdAt,value
2019-05-14T00:04:02.053Z,95267.5
2019-05-14T00:08:58.375Z,95327.3
2019-05-14T00:13:55.413Z,95320.4
2019-05-14T00:18:52.071Z,95334.7
2019-05-14T00:23:51.354Z,95264.2
2019-05-14T00:28:46.872Z,95221.2
2019-05-14T00:33:44.190Z,95244.9
2019-05-14T00:38:41.927Z,95254
2019-05-14T00:43:38.515Z,95298.4
2019-05-14T00:48:35.634Z,95302
2019-05-14T00:53:32.365Z,95314.8
2019-05-14T00:58:31.001Z,95315.5
2019-05-14T01:03:25.837Z,95305.4
2019-05-14T01:08:22.904Z,95313.8
2019-05-14T01:13:21.698Z,95312.7
2019-05-14T01:18:16.543Z,95309.2
2019-05-14T01:23:13.420Z,95296.3
2019-05-14T01:28:11.249Z,95235.7
2019-05-14T01:33:07.709Z,95243.9
2019-05-14T01:38:04.993Z,95241.5
2019-05-14T01:43:02.545Z,95235.8
2019-05-14T01:48:00.979Z,95303.5
2019-05-14T01:52:56.446Z,95231
2019-05-14T01:57:53.085Z,95304.1
2019-05-14T02:02:52.234Z,95307
2019-05-14T02:07:46.657Z,95308.7
2019-05-14T02:12:43.526Z,95280.5
2019-05-14T02:17:41.331Z,95280.6
2019-05-14T02:22:36.931Z,95292.2
2019-05-14T02:27:34.947Z,95266.8
2019-05-14T02:32:30.582Z,95279.4
2019-05-14T02:37:30.054Z,95276.4
2019-05-14T02:42:24.414Z,95198.1
2019-05-14T02:47:21.462Z,95290.8
2019-05-14T02:52:20.274Z,95291.1
2019-05-14T02:57:15.211Z,95297.9
2019-05-14T03:02:11.961Z,95290.4
2019-05-14T03:07:10.607Z,95307.8
2019-05-14T03:12:05.463Z,95334.5
2019-05-14T03:17:02.241Z,95352.5
2019-05-14T03:22:00.287Z,95352.3
2019-05-14T03:27:03.836Z,95321.6
2019-05-14T03:32:02.715Z,95360.6
2019-05-14T03:37:02.390Z,95373.7
2019-05-14T03:41:53.297Z,95361.1
2019-05-14T03:46:55.034Z,95354.1
2019-05-14T03:51:49.666Z,95263.4
2019-05-14T03:56:44.849Z,95328.1
2019-05-14T04:01:41.549Z,95314.7
2019-05-14T04:06:40.256Z,95315.9
2019-05-14T04:11:35.309Z,95142
2019-05-14T04:16:31.885Z,95313.9
2019-05-14T04:21:29.711Z,95319
2019-05-14T04:26:25.588Z,95327
2019-05-14T04:31:22.777Z,95252.7
2019-05-14T04:36:19.826Z,95323.4
2019-05-14T04:41:19.461Z,95242.5
2019-05-14T04:51:10.964Z,95302.4
2019-05-14T04:56:09.704Z,95313.1
2019-05-14T05:01:05.513Z,95322.1
2019-05-14T05:06:02.181Z,95308.7
2019-05-14T05:11:00.184Z,95231.7
2019-05-14T05:15:58.989Z,95308
2019-05-14T05:20:53.486Z,95298.8
2019-05-14T05:25:50.972Z,95294.9
2019-05-14T05:30:49.125Z,95220.1
2019-05-14T05:35:45.147Z,95303.3
2019-05-14T05:40:42.729Z,95315.5
2019-05-14T05:45:39.451Z,95285.1
2019-05-14T05:50:38.724Z,95304.3
2019-05-14T05:55:32.470Z,95306
2019-05-14T06:00:30.087Z,95297.6
2019-05-14T06:05:29.198Z,95296.2
2019-05-14T06:10:24.815Z,95280.9
2019-05-14T06:15:21.649Z,95289
2019-05-14T06:20:18.998Z,95291.3
2019-05-14T06:25:15.493Z,95288.1
2019-05-14T06:30:12.524Z,95300.4
2019-05-14T06:35:09.869Z,95289.3
2019-05-14T06:40:08.746Z,95291.5
2019-05-14T06:45:03.677Z,95274
2019-05-14T06:50:00.878Z,95252.9
2019-05-14T06:54:58.305Z,95240.1
2019-05-14T06:59:54.544Z,95239.5
2019-05-14T07:04:51.384Z,95209
2019-05-14T07:09:48.787Z,95236.8
2019-05-14T07:14:47.966Z,95161.9
2019-05-14T07:19:42.380Z,95234
2019-05-14T07:24:40.504Z,95234.9
2019-05-14T07:29:38.686Z,95162.6
2019-05-14T07:34:33.279Z,95236.5
2019-05-14T07:39:30.998Z,95164.2
2019-05-14T07:44:29.599Z,95253.9
2019-05-14T07:49:24.476Z,95244.1
2019-05-14T07:54:21.518Z,95178.3
2019-05-14T07:59:18.317Z,95243.1
2019-05-14T08:04:17.780Z,95243.8
2019-05-14T08:09:12.546Z,95174.1
2019-05-14T08:14:09.178Z,95249.2
2019-05-14T08:19:19.701Z,95257.9
2019-05-14T08:24:02.209Z,95230.3
2019-05-14T08:28:59.063Z,95226.4
2019-05-14T08:33:56.030Z,95224.8
2019-05-14T08:38:53.454Z,95148
2019-05-14T08:43:50.064Z,95203.2
2019-05-14T08:48:49.231Z,95204.6
2019-05-14T08:53:44.464Z,95145.4
2019-05-14T08:58:41.435Z,95195.6
2019-05-14T09:03:39.143Z,95204
2019-05-14T09:08:35.271Z,95214.7
2019-05-14T09:13:31.985Z,95208.9
2019-05-14T09:18:29.240Z,95197.4
2019-05-14T09:23:28.340Z,95181.6
2019-05-14T09:28:22.917Z,95170.9
2019-05-14T09:33:24.251Z,95094.1
2019-05-14T09:38:18.774Z,95150.9
2019-05-14T09:43:17.940Z,95092.6
2019-05-14T09:48:12.387Z,95155.3
2019-05-14T09:53:09.947Z,95080
2019-05-14T09:58:08.117Z,95147.6
2019-05-14T10:03:04.002Z,95134
2019-05-14T10:08:00.872Z,95137.9
2019-05-14T10:13:01.237Z,95063.1
2019-05-14T10:17:55.034Z,95120.8
2019-05-14T10:22:51.851Z,95121.8
2019-05-14T10:27:48.861Z,95113.5
2019-05-14T10:32:45.719Z,95118.3
2019-05-14T10:37:42.591Z,95113.3
2019-05-14T10:42:40.261Z,95121.2
2019-05-14T10:47:38.786Z,95106.1
2019-05-14T10:52:33.517Z,95117
2019-05-14T10:57:30.416Z,95106
2019-05-14T11:02:29.144Z,95109.1
2019-05-14T11:07:24.264Z,95107.6
2019-05-14T11:12:21.404Z,95117.6
2019-05-14T11:17:19.581Z,95119.5
2019-05-14T11:22:15.041Z,94921.2
2019-05-14T11:27:12.035Z,95105
2019-05-14T11:32:09.596Z,95113.7
2019-05-14T11:37:08.338Z,95104.7
2019-05-14T11:42:02.056Z,95101.9
2019-05-14T11:47:02.309Z,95091.4
2019-05-14T11:52:03.601Z,95134.2
2019-05-14T11:56:52.897Z,95089.1
2019-05-14T12:01:50.208Z,95088.5
2019-05-14T12:06:47.029Z,95093.5
2019-05-14T12:11:44.132Z,95087.9
2019-05-14T12:16:40.672Z,95086.3
2019-05-14T12:21:39.669Z,94969.7
2019-05-14T12:26:34.472Z,95047.1
2019-05-14T12:31:31.568Z,95037.4
2019-05-14T12:36:29.221Z,95002.1
2019-05-14T12:41:25.486Z,95031.2
2019-05-14T12:46:22.408Z,95033.2
2019-05-14T12:51:19.869Z,94879.1
2019-05-14T12:56:18.748Z,95014
2019-05-14T13:01:13.223Z,95010.2
2019-05-14T13:06:10.391Z,95000.9
2019-05-14T13:11:09.305Z,95006.2
2019-05-14T13:16:04.418Z,95011.3
2019-05-14T13:21:00.671Z,95027.6
2019-05-14T13:25:58.708Z,95010.7
2019-05-14T13:30:53.976Z,95014.2
2019-05-14T13:35:50.808Z,95022.5
2019-05-14T13:40:49.080Z,94978.1
2019-05-14T13:45:44.378Z,95011
2019-05-14T13:50:41.223Z,95011
2019-05-14T13:55:45.438Z,94923
2019-05-14T14:00:35.754Z,94981.8
2019-05-14T14:05:32.483Z,94966.5
2019-05-14T14:10:31.301Z,94967.6
2019-05-14T14:15:28.696Z,94959
2019-05-14T14:20:23.148Z,94946.6
2019-05-14T14:25:20.016Z,94944.4
2019-05-14T14:30:19.405Z,94935.6
2019-05-14T14:35:13.643Z,94946.4
2019-05-14T14:40:11.202Z,94938.8
2019-05-14T14:45:08.575Z,94431.8
2019-05-14T14:50:04.171Z,94912.3
2019-05-14T14:55:01.157Z,94919.1
2019-05-14T14:59:58.627Z,94860.6
2019-05-14T15:04:55.276Z,94916.8
2019-05-14T15:09:51.998Z,94922.7
2019-05-14T15:14:49.416Z,94898.2
2019-05-14T15:19:45.966Z,94908.5
2019-05-14T15:24:43.269Z,94818.8
2019-05-14T15:29:42.959Z,94884.1
2019-05-14T15:34:36.743Z,94897
2019-05-14T15:39:33.579Z,94894.6
2019-05-14T15:44:46.230Z,94898.3
2019-05-14T15:49:28.325Z,94890.1
2019-05-14T15:54:38.990Z,94884.8
2019-05-14T15:59:21.078Z,94893.8
2019-05-14T16:04:20.616Z,94900.2
2019-05-14T16:09:14.881Z,94889.4
2019-05-14T16:14:11.577Z,94890
2019-05-14T16:19:08.531Z,94890.4
2019-05-14T16:24:05.063Z,94888.3
2019-05-14T16:29:01.883Z,94890.3
2019-05-14T16:33:58.820Z,94889.7
2019-05-14T16:38:58.404Z,94838.8
2019-05-14T16:43:52.912Z,94912.6
2019-05-14T16:48:50.296Z,94874.9
2019-05-14T16:53:48.746Z,94907.8
2019-05-14T16:58:44.013Z,94806.8
2019-05-14T17:03:41.263Z,94775.3
2019-05-14T17:08:39.317Z,94850.1
2019-05-14T17:13:35.341Z,94853.9
2019-05-14T17:18:32.312Z,94885.9
2019-05-14T17:23:29.268Z,94916.2
2019-05-14T17:28:28.402Z,94912.3
2019-05-14T17:33:23.292Z,94842.5
2019-05-14T17:38:20.641Z,94847.1
2019-05-14T17:43:19.142Z,94906.3
2019-05-14T17:48:14.142Z,94872.2
2019-05-14T17:53:10.906Z,94876.6
2019-05-14T17:58:13.055Z,94905.4
2019-05-14T18:03:04.806Z,94878.7
2019-05-14T18:08:01.753Z,94908.4
2019-05-14T18:12:59.723Z,94920
2019-05-14T18:17:58.631Z,94905.8
2019-05-14T18:22:53.157Z,94841.3
2019-05-14T18:27:50.104Z,94903.6
2019-05-14T18:32:48.571Z,94916.1
2019-05-14T18:37:43.559Z,94889.7
2019-05-14T18:42:40.750Z,94845
2019-05-14T18:47:39.718Z,94916.7
2019-05-14T18:52:34.247Z,94922.5
2019-05-14T18:57:32.117Z,94927.1
2019-05-14T19:02:29.421Z,94862
2019-05-14T19:07:28.658Z,94854.1
2019-05-14T19:12:23.373Z,94909.9
2019-05-14T19:17:20.300Z,94908.3
2019-05-14T19:22:17.597Z,94840.9
2019-05-14T19:27:14.468Z,94909.8
2019-05-14T19:32:11.327Z,94881.4
2019-05-14T19:37:08.489Z,94905.5
2019-05-14T19:42:05.188Z,94925.3
2019-05-14T19:47:02.067Z,94911.5
2019-05-14T19:51:59.211Z,94806
2019-05-14T19:56:58.216Z,94912.1
2019-05-14T20:01:53.504Z,94836.3
2019-05-14T20:06:50.934Z,94850.1
2019-05-14T20:11:49.019Z,94947.4
2019-05-14T20:16:45.049Z,94880.2
2019-05-14T20:21:41.973Z,94959.1
2019-05-14T20:26:39.176Z,94991.3
2019-05-14T20:31:35.778Z,94878.3
2019-05-14T20:36:32.473Z,95052
2019-05-14T20:41:29.605Z,95022.7
2019-05-14T20:46:28.504Z,95026.2
2019-05-14T20:51:23.250Z,95023.6
2019-05-14T20:56:19.913Z,95029.1
2019-05-14T21:01:18.358Z,95042.1
2019-05-14T21:06:13.823Z,95046.3
2019-05-14T21:11:10.405Z,95053.3
2019-05-14T21:16:08.326Z,95032.2
2019-05-14T21:21:03.679Z,95070.7
2019-05-14T21:26:00.626Z,95075.3
2019-05-14T21:30:59.191Z,94997.6
2019-05-14T21:35:54.273Z,94970.8
2019-05-14T21:40:51.192Z,95034.1
2019-05-14T21:45:48.931Z,95049.5
2019-05-14T21:50:44.884Z,94980.8
2019-05-14T21:55:42.086Z,94973.2
2019-05-14T22:00:41.951Z,94942.9
2019-05-14T22:05:35.646Z,94992.8
2019-05-14T22:10:32.347Z,94993.2
2019-05-14T22:15:29.443Z,94994.8
2019-05-14T22:20:28.708Z,94998.7
2019-05-14T22:25:23.217Z,94993.5
2019-05-14T22:30:20.230Z,94976.9
2019-05-14T22:35:18.664Z,94971.3
2019-05-14T22:40:13.709Z,94968.4
2019-05-14T22:45:10.530Z,95011.9
2019-05-14T22:50:08.894Z,95132.1
2019-05-14T22:55:04.047Z,95021.8
2019-05-14T23:00:00.704Z,95085.4
2019-05-14T23:04:58.508Z,95086.9
2019-05-14T23:09:54.264Z,94998.5
2019-05-14T23:14:50.963Z,95006.9
2019-05-14T23:19:48.348Z,95001.4
2019-05-14T23:24:44.394Z,94978.2
2019-05-14T23:29:41.486Z,94992
2019-05-14T23:34:38.335Z,94992.5
2019-05-14T23:39:35.576Z,95155.4
2019-05-14T23:44:32.822Z,95083.8
2019-05-14T23:49:29.622Z,95079.7
2019-05-14T23:54:26.300Z,95021.9
2019-05-14T23:59:23.238Z,95014
